createdAt,value
2018-08-03T00:00:54.729Z,1016.82
2018-08-03T00:01:54.746Z,1016.82
2018-08-03T00:02:54.746Z,1016.80
2018-08-03T00:03:54.754Z,1016.80
2018-08-03T00:04:54.762Z,1016.78
2018-08-03T00:05:54.767Z,1016.76
2018-08-03T00:06:54.773Z,1016.77
2018-08-03T00:07:54.798Z,1016.76
2018-08-03T00:08:54.793Z,1016.73
2018-08-03T00:09:54.807Z,1016.75
2018-08-03T00:10:54.808Z,1016.74
2018-08-03T00:11:54.816Z,1016.73
2018-08-03T00:12:54.827Z,1016.70
2018-08-03T00:13:54.824Z,1016.65
2018-08-03T00:14:54.835Z,1016.67
2018-08-03T00:15:54.847Z,1016.70
2018-08-03T00:16:54.856Z,1016.71
2018-08-03T00:17:54.857Z,1016.71
2018-08-03T00:18:54.865Z,1016.72
2018-08-03T00:19:54.876Z,1016.73
2018-08-03T00:20:54.885Z,1016.74
2018-08-03T00:21:54.894Z,1016.72
2018-08-03T00:22:54.895Z,1016.67
2018-08-03T00:23:54.901Z,1016.69
2018-08-03T00:24:54.919Z,1016.72
2018-08-03T00:25:54.917Z,1016.73
2018-08-03T00:26:54.935Z,1016.72
2018-08-03T00:27:54.932Z,1016.69
2018-08-03T00:28:54.940Z,1016.69
2018-08-03T00:29:54.965Z,1016.70
2018-08-03T00:30:54.960Z,1016.67
2018-08-03T00:31:54.958Z,1016.70
2018-08-03T00:32:54.968Z,1016.65
2018-08-03T00:33:54.979Z,1016.64
2018-08-03T00:34:54.993Z,1016.68
2018-08-03T00:35:54.994Z,1016.63
2018-08-03T00:36:55.003Z,1016.65
2018-08-03T00:37:55.008Z,1016.65
2018-08-03T00:38:55.037Z,1016.63
2018-08-03T00:39:55.033Z,1016.64
2018-08-03T00:40:55.042Z,1016.65
2018-08-03T00:41:55.036Z,1016.63
2018-08-03T00:42:55.053Z,1016.66
2018-08-03T00:43:55.057Z,1016.67
2018-08-03T00:44:55.068Z,1016.64
2018-08-03T00:45:55.082Z,1016.66
2018-08-03T00:46:55.070Z,1016.65
2018-08-03T00:47:55.091Z,1016.67
2018-08-03T00:48:56.985Z,1016.61
2018-08-03T00:49:55.109Z,1016.65
2018-08-03T00:50:55.101Z,1016.63
2018-08-03T00:51:55.120Z,1016.62
2018-08-03T00:52:55.120Z,1016.63
2018-08-03T00:53:55.133Z,1016.64
2018-08-03T00:54:55.143Z,1016.63
2018-08-03T00:55:55.152Z,1016.65
2018-08-03T00:56:55.149Z,1016.67
2018-08-03T00:57:55.161Z,1016.65
2018-08-03T00:58:55.168Z,1016.64
2018-08-03T00:59:55.176Z,1016.67
2018-08-03T01:00:55.179Z,1016.65
2018-08-03T01:01:55.188Z,1016.66
2018-08-03T01:02:55.198Z,1016.66
2018-08-03T01:03:55.199Z,1016.66
2018-08-03T01:04:55.206Z,1016.66
2018-08-03T01:05:55.223Z,1016.68
2018-08-03T01:06:55.232Z,1016.64
2018-08-03T01:07:55.234Z,1016.67
2018-08-03T01:08:55.237Z,1016.65
2018-08-03T01:09:55.244Z,1016.63
2018-08-03T01:10:55.252Z,1016.65
2018-08-03T01:11:55.259Z,1016.65
2018-08-03T01:12:55.318Z,1016.65
2018-08-03T01:13:55.301Z,1016.63
2018-08-03T01:14:55.285Z,1016.62
2018-08-03T01:15:55.289Z,1016.64
2018-08-03T01:16:55.294Z,1016.65
2018-08-03T01:17:55.304Z,1016.61
2018-08-03T01:18:55.301Z,1016.59
2018-08-03T01:19:55.322Z,1016.60
2018-08-03T01:20:55.317Z,1016.60
2018-08-03T01:21:55.336Z,1016.57
2018-08-03T01:22:55.359Z,1016.60
2018-08-03T01:23:55.344Z,1016.60
2018-08-03T01:24:55.354Z,1016.59
2018-08-03T01:25:56.991Z,1016.61
2018-08-03T01:26:55.360Z,1016.60
2018-08-03T01:27:55.405Z,1016.61
2018-08-03T01:28:55.404Z,1016.61
2018-08-03T01:29:55.389Z,1016.59
2018-08-03T01:30:55.391Z,1016.59
2018-08-03T01:31:55.402Z,1016.57
2018-08-03T01:32:55.407Z,1016.59
2018-08-03T01:33:55.427Z,1016.60
2018-08-03T01:34:55.417Z,1016.59
2018-08-03T01:35:55.430Z,1016.60
2018-08-03T01:36:55.438Z,1016.64
2018-08-03T01:37:55.490Z,1016.60
2018-08-03T01:38:55.451Z,1016.57
2018-08-03T01:39:55.461Z,1016.57
2018-08-03T01:40:55.469Z,1016.56
2018-08-03T01:41:55.471Z,1016.56
2018-08-03T01:42:58.000Z,1016.55
2018-08-03T01:43:55.483Z,1016.57
2018-08-03T01:44:55.499Z,1016.54
2018-08-03T01:45:55.498Z,1016.52
2018-08-03T01:46:55.515Z,1016.52
2018-08-03T01:47:55.512Z,1016.52
2018-08-03T01:48:55.524Z,1016.49
2018-08-03T01:49:55.523Z,1016.49
2018-08-03T01:50:55.535Z,1016.50
2018-08-03T01:51:55.541Z,1016.48
2018-08-03T01:52:55.547Z,1016.46
2018-08-03T01:53:55.559Z,1016.44
2018-08-03T01:54:55.558Z,1016.45
2018-08-03T01:55:55.572Z,1016.44
2018-08-03T01:56:55.574Z,1016.46
2018-08-03T01:57:57.530Z,1016.48
2018-08-03T01:58:55.587Z,1016.46
2018-08-03T01:59:55.598Z,1016.45
2018-08-03T02:00:55.599Z,1016.44
2018-08-03T02:01:55.621Z,1016.41
2018-08-03T02:02:55.612Z,1016.46
2018-08-03T02:03:55.629Z,1016.47
2018-08-03T02:04:55.626Z,1016.48
2018-08-03T02:05:55.643Z,1016.44
2018-08-03T02:06:55.654Z,1016.42
2018-08-03T02:07:55.652Z,1016.41
2018-08-03T02:08:55.664Z,1016.43
2018-08-03T02:09:55.672Z,1016.44
2018-08-03T02:10:57.612Z,1016.45
2018-08-03T02:11:55.684Z,1016.42
2018-08-03T02:12:55.689Z,1016.44
2018-08-03T02:13:55.694Z,1016.41
2018-08-03T02:14:55.702Z,1016.40
2018-08-03T02:15:55.758Z,1016.43
2018-08-03T02:16:55.714Z,1016.43
2018-08-03T02:17:55.731Z,1016.43
2018-08-03T02:18:56.521Z,1016.43
2018-08-03T02:19:55.735Z,1016.45
2018-08-03T02:20:55.750Z,1016.45
2018-08-03T02:21:55.746Z,1016.44
2018-08-03T02:22:55.755Z,1016.44
2018-08-03T02:23:55.767Z,1016.45
2018-08-03T02:24:55.773Z,1016.41
2018-08-03T02:25:55.772Z,1016.44
2018-08-03T02:26:55.781Z,1016.42
2018-08-03T02:27:55.789Z,1016.46
2018-08-03T02:28:55.799Z,1016.46
2018-08-03T02:29:55.799Z,1016.47
2018-08-03T02:30:55.816Z,1016.48
2018-08-03T02:31:55.821Z,1016.48
2018-08-03T02:32:55.822Z,1016.51
2018-08-03T02:33:55.834Z,1016.50
2018-08-03T02:34:55.839Z,1016.50
2018-08-03T02:35:55.858Z,1016.49
2018-08-03T02:36:55.860Z,1016.49
2018-08-03T02:37:55.855Z,1016.49
2018-08-03T02:38:56.522Z,1016.50
2018-08-03T02:39:55.883Z,1016.50
2018-08-03T02:40:55.883Z,1016.53
2018-08-03T02:41:55.879Z,1016.56
2018-08-03T02:42:55.886Z,1016.57
2018-08-03T02:43:55.901Z,1016.54
2018-08-03T02:44:55.908Z,1016.56
2018-08-03T02:45:55.903Z,1016.59
2018-08-03T02:46:55.910Z,1016.60
2018-08-03T02:47:55.927Z,1016.58
2018-08-03T02:48:55.933Z,1016.59
2018-08-03T02:49:55.935Z,1016.61
2018-08-03T02:50:55.943Z,1016.60
2018-08-03T02:51:55.953Z,1016.56
2018-08-03T02:52:55.954Z,1016.58
2018-08-03T02:53:55.962Z,1016.59
2018-08-03T02:54:55.972Z,1016.59
2018-08-03T02:55:55.977Z,1016.62
2018-08-03T02:56:55.982Z,1016.61
2018-08-03T02:57:55.995Z,1016.60
2018-08-03T02:58:55.999Z,1016.59
2018-08-03T02:59:56.003Z,1016.59
2018-08-03T03:00:56.002Z,1016.60
2018-08-03T03:01:56.022Z,1016.60
2018-08-03T03:02:56.030Z,1016.59
2018-08-03T03:03:56.023Z,1016.62
2018-08-03T03:04:56.033Z,1016.60
2018-08-03T03:05:56.044Z,1016.57
2018-08-03T03:06:56.047Z,1016.55
2018-08-03T03:07:56.054Z,1016.57
2018-08-03T03:08:56.065Z,1016.56
2018-08-03T03:09:56.068Z,1016.61
2018-08-03T03:10:56.071Z,1016.60
2018-08-03T03:11:56.076Z,1016.62
2018-08-03T03:12:56.090Z,1016.57
2018-08-03T03:13:56.095Z,1016.64
2018-08-03T03:14:56.103Z,1016.67
2018-08-03T03:15:56.108Z,1016.69
2018-08-03T03:16:56.113Z,1016.67
2018-08-03T03:17:56.120Z,1016.65
2018-08-03T03:18:56.127Z,1016.70
2018-08-03T03:19:56.136Z,1016.65
2018-08-03T03:20:56.141Z,1016.66
2018-08-03T03:21:56.167Z,1016.68
2018-08-03T03:22:56.152Z,1016.67
2018-08-03T03:23:56.162Z,1016.70
2018-08-03T03:24:56.161Z,1016.69
2018-08-03T03:25:56.172Z,1016.67
2018-08-03T03:26:56.176Z,1016.70
2018-08-03T03:27:56.182Z,1016.69
2018-08-03T03:28:56.197Z,1016.71
2018-08-03T03:29:56.198Z,1016.69
2018-08-03T03:30:56.200Z,1016.69
2018-08-03T03:31:56.214Z,1016.75
2018-08-03T03:32:56.211Z,1016.75
2018-08-03T03:33:56.228Z,1016.70
2018-08-03T03:34:56.229Z,1016.73
2018-08-03T03:35:56.237Z,1016.73
2018-08-03T03:36:56.298Z,1016.75
2018-08-03T03:37:56.248Z,1016.76
2018-08-03T03:38:56.256Z,1016.76
2018-08-03T03:39:56.259Z,1016.76
2018-08-03T03:40:56.270Z,1016.76
2018-08-03T03:41:56.275Z,1016.73
2018-08-03T03:42:56.281Z,1016.75
2018-08-03T03:43:57.057Z,1016.73
2018-08-03T03:44:56.291Z,1016.73
2018-08-03T03:45:56.302Z,1016.72
2018-08-03T03:46:56.309Z,1016.72
2018-08-03T03:47:56.312Z,1016.73
2018-08-03T03:48:56.315Z,1016.69
2018-08-03T03:49:56.331Z,1016.68
2018-08-03T03:50:56.368Z,1016.73
2018-08-03T03:51:56.339Z,1016.71
2018-08-03T03:52:56.336Z,1016.68
2018-08-03T03:53:56.357Z,1016.71
2018-08-03T03:54:57.052Z,1016.68
2018-08-03T03:55:56.362Z,1016.72
2018-08-03T03:56:56.368Z,1016.65
2018-08-03T03:57:56.373Z,1016.68
2018-08-03T03:58:56.377Z,1016.68
2018-08-03T03:59:56.387Z,1016.69
2018-08-03T04:00:56.389Z,1016.68
2018-08-03T04:01:56.400Z,1016.68
2018-08-03T04:02:56.398Z,1016.71
2018-08-03T04:03:56.478Z,1016.69
2018-08-03T04:04:56.412Z,1016.68
2018-08-03T04:05:56.428Z,1016.68
2018-08-03T04:06:56.434Z,1016.70
2018-08-03T04:07:56.440Z,1016.74
2018-08-03T04:08:56.440Z,1016.68
2018-08-03T04:09:56.450Z,1016.67
2018-08-03T04:10:56.463Z,1016.68
2018-08-03T04:11:56.459Z,1016.69
2018-08-03T04:12:56.465Z,1016.67
2018-08-03T04:13:56.475Z,1016.71
2018-08-03T04:14:56.475Z,1016.71
2018-08-03T04:15:56.482Z,1016.69
2018-08-03T04:16:56.500Z,1016.72
2018-08-03T04:17:56.503Z,1016.69
2018-08-03T04:18:56.507Z,1016.72
2018-08-03T04:19:56.516Z,1016.66
2018-08-03T04:20:56.520Z,1016.66
2018-08-03T04:21:56.533Z,1016.66
2018-08-03T04:22:56.529Z,1016.65
2018-08-03T04:23:56.541Z,1016.64
2018-08-03T04:24:56.544Z,1016.64
2018-08-03T04:25:56.548Z,1016.65
2018-08-03T04:26:56.555Z,1016.65
2018-08-03T04:27:56.565Z,1016.63
2018-08-03T04:28:56.570Z,1016.66
2018-08-03T04:29:56.582Z,1016.65
2018-08-03T04:30:56.584Z,1016.62
2018-08-03T04:31:56.588Z,1016.63
2018-08-03T04:32:56.612Z,1016.62
2018-08-03T04:33:56.602Z,1016.63
2018-08-03T04:34:56.608Z,1016.62
2018-08-03T04:35:56.616Z,1016.63
2018-08-03T04:36:56.619Z,1016.61
2018-08-03T04:37:56.624Z,1016.66
2018-08-03T04:38:56.680Z,1016.65
2018-08-03T04:39:56.703Z,1016.63
2018-08-03T04:40:56.650Z,1016.66
2018-08-03T04:41:56.649Z,1016.69
2018-08-03T04:42:56.696Z,1016.70
2018-08-03T04:43:56.684Z,1016.70
2018-08-03T04:44:56.766Z,1016.66
2018-08-03T04:45:56.769Z,1016.68
2018-08-03T04:46:56.800Z,1016.71
2018-08-03T04:47:56.823Z,1016.69
2018-08-03T04:48:56.867Z,1016.69
2018-08-03T04:49:56.714Z,1016.66
2018-08-03T04:50:56.786Z,1016.66
2018-08-03T04:51:56.748Z,1016.68
2018-08-03T04:52:56.847Z,1016.71
2018-08-03T04:53:56.735Z,1016.68
2018-08-03T04:54:56.755Z,1016.69
2018-08-03T04:55:56.752Z,1016.66
2018-08-03T04:56:56.824Z,1016.69
2018-08-03T04:57:56.831Z,1016.71
2018-08-03T04:58:56.775Z,1016.70
2018-08-03T04:59:56.775Z,1016.69
2018-08-03T05:00:57.672Z,1016.72
2018-08-03T05:01:56.799Z,1016.73
2018-08-03T05:02:56.880Z,1016.76
2018-08-03T05:03:56.894Z,1016.69
2018-08-03T05:04:56.847Z,1016.68
2018-08-03T05:05:56.821Z,1016.76
2018-08-03T05:06:56.899Z,1016.77
2018-08-03T05:07:56.904Z,1016.78
2018-08-03T05:08:56.978Z,1016.77
2018-08-03T05:09:57.007Z,1016.80
2018-08-03T05:10:56.841Z,1016.80
2018-08-03T05:11:56.982Z,1016.82
2018-08-03T05:12:57.764Z,1016.81
2018-08-03T05:13:56.917Z,1016.80
2018-08-03T05:14:57.029Z,1016.83
2018-08-03T05:15:56.976Z,1016.84
2018-08-03T05:16:56.957Z,1016.81
2018-08-03T05:17:56.951Z,1016.81
2018-08-03T05:18:56.921Z,1016.86
2018-08-03T05:19:56.981Z,1016.84
2018-08-03T05:20:57.578Z,1016.82
2018-08-03T05:21:57.011Z,1016.82
2018-08-03T05:22:56.934Z,1016.86
2018-08-03T05:23:56.930Z,1016.84
2018-08-03T05:24:57.060Z,1016.84
2018-08-03T05:25:56.944Z,1016.80
2018-08-03T05:26:57.086Z,1016.80
2018-08-03T05:27:57.046Z,1016.80
2018-08-03T05:28:57.125Z,1016.81
2018-08-03T05:29:57.054Z,1016.80
2018-08-03T05:30:57.105Z,1016.82
2018-08-03T05:31:57.058Z,1016.82
2018-08-03T05:32:57.076Z,1016.80
2018-08-03T05:33:57.084Z,1016.81
2018-08-03T05:34:57.043Z,1016.82
2018-08-03T05:35:57.172Z,1016.84
2018-08-03T05:36:57.059Z,1016.85
2018-08-03T05:37:57.042Z,1016.84
2018-08-03T05:38:57.103Z,1016.91
2018-08-03T05:39:57.065Z,1016.98
2018-08-03T05:40:57.151Z,1017.12
2018-08-03T05:41:57.099Z,1017.11
2018-08-03T05:42:57.069Z,1017.17
2018-08-03T05:43:57.100Z,1017.14
2018-08-03T05:44:57.110Z,1017.17
2018-08-03T05:45:57.223Z,1017.14
2018-08-03T05:46:58.059Z,1017.22
2018-08-03T05:47:57.228Z,1017.22
2018-08-03T05:48:57.198Z,1017.23
2018-08-03T05:49:57.176Z,1017.23
2018-08-03T05:50:57.179Z,1017.27
2018-08-03T05:51:57.154Z,1017.27
2018-08-03T05:52:57.192Z,1017.29
2018-08-03T05:53:57.176Z,1017.35
2018-08-03T05:54:57.211Z,1017.37
2018-08-03T05:55:57.197Z,1017.39
2018-08-03T05:56:57.223Z,1017.45
2018-08-03T05:57:57.262Z,1017.40
2018-08-03T05:58:57.349Z,1017.41
2018-08-03T05:59:57.254Z,1017.42
2018-08-03T06:00:57.250Z,1017.45
2018-08-03T06:01:57.291Z,1017.44
2018-08-03T06:02:57.270Z,1017.46
2018-08-03T06:03:57.286Z,1017.47
2018-08-03T06:04:57.301Z,1017.42
2018-08-03T06:05:57.309Z,1017.50
2018-08-03T06:06:57.322Z,1017.51
2018-08-03T06:07:57.329Z,1017.51
2018-08-03T06:08:57.344Z,1017.54
2018-08-03T06:09:57.354Z,1017.55
2018-08-03T06:10:57.389Z,1017.54
2018-08-03T06:11:57.411Z,1017.58
2018-08-03T06:12:57.445Z,1017.58
2018-08-03T06:13:57.468Z,1017.58
2018-08-03T06:14:57.457Z,1017.59
2018-08-03T06:15:57.462Z,1017.61
2018-08-03T06:16:57.478Z,1017.56
2018-08-03T06:17:57.593Z,1017.60
2018-08-03T06:18:57.593Z,1017.60
2018-08-03T06:19:57.507Z,1017.61
2018-08-03T06:20:57.518Z,1017.61
2018-08-03T06:21:57.546Z,1017.65
2018-08-03T06:22:57.545Z,1017.65
2018-08-03T06:23:57.577Z,1017.65
2018-08-03T06:24:57.600Z,1017.68
2018-08-03T06:25:57.626Z,1017.71
2018-08-03T06:26:57.670Z,1017.70
2018-08-03T06:27:57.725Z,1017.68
2018-08-03T06:28:57.667Z,1017.73
2018-08-03T06:29:57.657Z,1017.73
2018-08-03T06:30:57.685Z,1017.71
2018-08-03T06:31:57.816Z,1017.70
2018-08-03T06:32:57.828Z,1017.71
2018-08-03T06:33:58.613Z,1017.73
2018-08-03T06:34:57.732Z,1017.73
2018-08-03T06:35:57.847Z,1017.72
2018-08-03T06:36:58.051Z,1017.73
2018-08-03T06:37:57.782Z,1017.76
2018-08-03T06:38:57.929Z,1017.73
2018-08-03T06:39:58.002Z,1017.75
2018-08-03T06:40:57.942Z,1017.73
2018-08-03T06:41:57.959Z,1017.72
2018-08-03T06:42:57.986Z,1017.73
2018-08-03T06:43:57.961Z,1017.76
2018-08-03T06:44:57.942Z,1017.78
2018-08-03T06:45:57.925Z,1017.79
2018-08-03T06:46:58.056Z,1017.82
2018-08-03T06:47:57.974Z,1017.80
2018-08-03T06:48:58.063Z,1017.78
2018-08-03T06:49:58.083Z,1017.79
2018-08-03T06:51:01.009Z,1017.81
2018-08-03T06:51:58.588Z,1017.82
2018-08-03T06:52:58.634Z,1017.82
2018-08-03T06:53:58.161Z,1017.83
2018-08-03T06:54:58.119Z,1017.83
2018-08-03T06:55:58.117Z,1017.82
2018-08-03T06:56:58.233Z,1017.85
2018-08-03T06:57:58.299Z,1017.84
2018-08-03T06:58:58.702Z,1017.85
2018-08-03T06:59:58.265Z,1017.84
2018-08-03T07:00:58.300Z,1017.87
2018-08-03T07:01:58.987Z,1017.88
2018-08-03T07:02:58.387Z,1017.92
2018-08-03T07:03:58.402Z,1017.87
2018-08-03T07:04:58.413Z,1017.88
2018-08-03T07:05:58.286Z,1017.91
2018-08-03T07:06:58.423Z,1017.88
2018-08-03T07:07:58.838Z,1017.89
2018-08-03T07:08:58.343Z,1017.92
2018-08-03T07:09:58.377Z,1017.86
2018-08-03T07:10:58.376Z,1017.90
2018-08-03T07:11:58.410Z,1017.92
2018-08-03T07:12:58.423Z,1017.91
2018-08-03T07:13:58.496Z,1017.88
2018-08-03T07:14:58.529Z,1017.86
2018-08-03T07:15:58.478Z,1017.88
2018-08-03T07:16:58.504Z,1017.86
2018-08-03T07:17:58.531Z,1017.87
2018-08-03T07:18:58.538Z,1017.88
2018-08-03T07:19:58.582Z,1017.87
2018-08-03T07:20:58.596Z,1017.88
2018-08-03T07:21:58.603Z,1017.94
2018-08-03T07:22:58.625Z,1017.89
2018-08-03T07:23:58.683Z,1017.87
2018-08-03T07:24:58.657Z,1017.83
2018-08-03T07:25:58.748Z,1017.88
2018-08-03T07:26:58.705Z,1017.89
2018-08-03T07:27:58.722Z,1017.92
2018-08-03T07:28:59.635Z,1017.97
2018-08-03T07:29:58.768Z,1017.91
2018-08-03T07:30:58.792Z,1017.93
2018-08-03T07:31:58.806Z,1017.95
2018-08-03T07:32:58.881Z,1017.90
2018-08-03T07:33:58.850Z,1017.95
2018-08-03T07:34:58.873Z,1018.00
2018-08-03T07:35:58.882Z,1017.97
2018-08-03T07:36:58.947Z,1018.00
2018-08-03T07:37:58.938Z,1018.02
2018-08-03T07:38:58.958Z,1017.99
2018-08-03T07:39:58.995Z,1018.01
2018-08-03T07:40:58.997Z,1018.03
2018-08-03T07:41:59.018Z,1018.02
2018-08-03T07:42:59.143Z,1018.00
2018-08-03T07:43:59.068Z,1017.96
2018-08-03T07:44:59.116Z,1017.99
2018-08-03T07:45:59.108Z,1017.96
2018-08-03T07:46:59.122Z,1017.98
2018-08-03T07:47:59.150Z,1017.98
2018-08-03T07:48:59.172Z,1017.97
2018-08-03T07:49:59.203Z,1017.99
2018-08-03T07:50:59.216Z,1018.05
2018-08-03T07:51:59.244Z,1018.04
2018-08-03T07:52:59.255Z,1018.04
2018-08-03T07:53:59.284Z,1018.05
2018-08-03T07:54:59.301Z,1018.11
2018-08-03T07:55:59.321Z,1018.07
2018-08-03T07:56:59.347Z,1018.01
2018-08-03T07:58:00.141Z,1018.01
2018-08-03T07:58:59.401Z,1018.01
2018-08-03T07:59:59.424Z,1018.01
2018-08-03T08:00:59.440Z,1018.00
2018-08-03T08:01:59.471Z,1017.99
2018-08-03T08:02:59.477Z,1018.07
2018-08-03T08:03:59.515Z,1018.06
2018-08-03T08:04:59.532Z,1018.06
2018-08-03T08:05:59.605Z,1018.00
2018-08-03T08:06:59.587Z,1017.96
2018-08-03T08:07:59.653Z,1018.07
2018-08-03T08:08:59.618Z,1018.06
2018-08-03T08:09:59.661Z,1018.05
2018-08-03T08:10:59.680Z,1018.01
2018-08-03T08:11:59.682Z,1017.99
2018-08-03T08:12:59.717Z,1017.96
2018-08-03T08:13:59.736Z,1018.01
2018-08-03T08:14:59.759Z,1017.99
2018-08-03T08:15:59.804Z,1017.99
2018-08-03T08:16:59.862Z,1018.03
2018-08-03T08:17:59.830Z,1018.03
2018-08-03T08:18:59.854Z,1018.01
2018-08-03T08:19:59.881Z,1018.03
2018-08-03T08:20:59.898Z,1017.98
2018-08-03T08:21:59.927Z,1018.00
2018-08-03T08:22:59.940Z,1017.99
2018-08-03T08:23:59.979Z,1018.01
2018-08-03T08:24:59.989Z,1018.01
2018-08-03T08:26:00.057Z,1018.01
2018-08-03T08:27:00.042Z,1017.99
2018-08-03T08:28:00.064Z,1017.99
2018-08-03T08:29:00.091Z,1017.95
2018-08-03T08:30:00.122Z,1017.95
2018-08-03T08:31:00.146Z,1017.96
2018-08-03T08:32:00.160Z,1017.97
2018-08-03T08:33:00.189Z,1017.91
2018-08-03T08:34:00.208Z,1017.87
2018-08-03T08:35:00.260Z,1017.88
2018-08-03T08:36:00.259Z,1017.91
2018-08-03T08:37:00.300Z,1017.86
2018-08-03T08:38:00.303Z,1017.88
2018-08-03T08:39:00.327Z,1017.85
2018-08-03T08:40:00.353Z,1017.85
2018-08-03T08:41:00.388Z,1017.85
2018-08-03T08:42:00.398Z,1017.85
2018-08-03T08:43:00.436Z,1017.89
2018-08-03T08:44:00.485Z,1017.92
2018-08-03T08:45:00.477Z,1017.89
2018-08-03T08:46:00.495Z,1017.95
2018-08-03T08:47:00.526Z,1017.91
2018-08-03T08:48:00.614Z,1017.87
2018-08-03T08:49:00.683Z,1017.81
2018-08-03T08:50:00.633Z,1017.82
2018-08-03T08:51:00.663Z,1017.82
2018-08-03T08:52:00.670Z,1017.83
2018-08-03T08:53:01.672Z,1017.84
2018-08-03T08:54:00.707Z,1017.82
2018-08-03T08:55:00.735Z,1017.82
2018-08-03T08:56:00.839Z,1017.79
2018-08-03T08:57:00.848Z,1017.81
2018-08-03T08:58:00.886Z,1017.78
2018-08-03T08:59:00.834Z,1017.80
2018-08-03T09:00:00.839Z,1017.75
2018-08-03T09:01:00.951Z,1017.79
2018-08-03T09:02:00.913Z,1017.76
2018-08-03T09:03:00.964Z,1017.69
2018-08-03T09:04:00.968Z,1017.70
2018-08-03T09:05:00.974Z,1017.70
2018-08-03T09:06:00.992Z,1017.64
2018-08-03T09:07:01.010Z,1017.67
2018-08-03T09:08:01.042Z,1017.69
2018-08-03T09:09:01.065Z,1017.70
2018-08-03T09:10:01.096Z,1017.71
2018-08-03T09:11:01.113Z,1017.69
2018-08-03T09:12:01.146Z,1017.64
2018-08-03T09:13:01.220Z,1017.64
2018-08-03T09:14:01.189Z,1017.62
2018-08-03T09:15:01.221Z,1017.60
2018-08-03T09:16:01.236Z,1017.62
2018-08-03T09:17:01.269Z,1017.55
2018-08-03T09:18:01.285Z,1017.58
2018-08-03T09:19:01.315Z,1017.58
2018-08-03T09:20:01.343Z,1017.54
2018-08-03T09:21:01.370Z,1017.58
2018-08-03T09:22:01.457Z,1017.57
2018-08-03T09:23:01.417Z,1017.57
2018-08-03T09:24:01.437Z,1017.55
2018-08-03T09:25:01.468Z,1017.52
2018-08-03T09:26:01.500Z,1017.52
2018-08-03T09:27:01.521Z,1017.51
2018-08-03T09:28:01.536Z,1017.57
2018-08-03T09:29:01.558Z,1017.55
2018-08-03T09:30:01.596Z,1017.53
2018-08-03T09:31:01.700Z,1017.55
2018-08-03T09:32:01.643Z,1017.54
2018-08-03T09:33:01.663Z,1017.53
2018-08-03T09:34:01.694Z,1017.55
2018-08-03T09:35:01.714Z,1017.53
2018-08-03T09:36:01.740Z,1017.55
2018-08-03T09:37:01.764Z,1017.56
2018-08-03T09:38:01.790Z,1017.52
2018-08-03T09:39:01.818Z,1017.48
2018-08-03T09:40:01.842Z,1017.45
2018-08-03T09:41:01.863Z,1017.47
2018-08-03T09:42:01.917Z,1017.43
2018-08-03T09:43:01.969Z,1017.45
2018-08-03T09:44:01.945Z,1017.44
2018-08-03T09:45:01.981Z,1017.46
2018-08-03T09:46:01.994Z,1017.49
2018-08-03T09:47:02.020Z,1017.47
2018-08-03T09:48:02.037Z,1017.51
2018-08-03T09:49:02.086Z,1017.50
2018-08-03T09:50:02.093Z,1017.54
2018-08-03T09:51:02.118Z,1017.57
2018-08-03T09:52:02.142Z,1017.61
2018-08-03T09:53:02.166Z,1017.62
2018-08-03T09:54:02.196Z,1017.56
2018-08-03T09:55:02.240Z,1017.57
2018-08-03T09:56:02.252Z,1017.51
2018-08-03T09:57:02.275Z,1017.45
2018-08-03T09:58:02.300Z,1017.43
2018-08-03T09:59:02.314Z,1017.43
2018-08-03T10:00:02.352Z,1017.53
2018-08-03T10:01:02.378Z,1017.46
2018-08-03T10:02:02.401Z,1017.39
2018-08-03T10:03:02.417Z,1017.30
2018-08-03T10:04:02.452Z,1017.26
2018-08-03T10:05:02.471Z,1017.25
2018-08-03T10:06:02.511Z,1017.20
2018-08-03T10:07:02.521Z,1017.13
2018-08-03T10:08:02.556Z,1017.04
2018-08-03T10:09:02.572Z,1016.99
2018-08-03T10:10:02.598Z,1016.79
2018-08-03T10:11:02.626Z,1016.63
2018-08-03T10:12:02.662Z,1016.56
2018-08-03T10:13:02.679Z,1016.48
2018-08-03T10:14:02.700Z,1016.44
2018-08-03T10:15:02.733Z,1016.41
2018-08-03T10:16:02.747Z,1016.40
2018-08-03T10:17:02.781Z,1016.35
2018-08-03T10:18:02.798Z,1016.32
2018-08-03T10:19:02.827Z,1016.31
2018-08-03T10:20:02.853Z,1016.28
2018-08-03T10:21:02.883Z,1016.29
2018-08-03T10:22:02.903Z,1016.26
2018-08-03T10:23:02.948Z,1016.24
2018-08-03T10:24:02.951Z,1016.21
2018-08-03T10:25:02.983Z,1016.21
2018-08-03T10:26:03.005Z,1016.23
2018-08-03T10:27:03.041Z,1016.21
2018-08-03T10:28:03.073Z,1016.15
2018-08-03T10:29:03.086Z,1016.18
2018-08-03T10:30:03.114Z,1016.17
2018-08-03T10:31:03.126Z,1016.16
2018-08-03T10:32:03.159Z,1016.17
2018-08-03T10:33:03.181Z,1016.14
2018-08-03T10:34:03.212Z,1016.13
2018-08-03T10:35:03.251Z,1016.12
2018-08-03T10:36:03.261Z,1016.08
2018-08-03T10:37:03.281Z,1016.06
2018-08-03T10:38:03.309Z,1016.07
2018-08-03T10:39:03.333Z,1016.05
2018-08-03T10:40:03.359Z,1016.06
2018-08-03T10:41:03.380Z,1016.00
2018-08-03T10:42:03.407Z,1016.00
2018-08-03T10:43:03.448Z,1016.02
2018-08-03T10:44:03.467Z,1015.96
2018-08-03T10:45:03.607Z,1015.97
2018-08-03T10:46:03.510Z,1015.94
2018-08-03T10:47:03.542Z,1015.94
2018-08-03T10:48:03.547Z,1015.90
2018-08-03T10:49:03.582Z,1015.86
2018-08-03T10:50:03.598Z,1015.82
2018-08-03T10:51:03.633Z,1015.87
2018-08-03T10:52:03.657Z,1015.84
2018-08-03T10:53:03.682Z,1015.87
2018-08-03T10:54:03.707Z,1015.86
2018-08-03T10:55:03.729Z,1015.81
2018-08-03T10:56:03.785Z,1015.86
2018-08-03T10:57:03.770Z,1015.76
2018-08-03T10:58:03.797Z,1015.79
2018-08-03T10:59:03.823Z,1015.77
2018-08-03T11:00:03.852Z,1015.80
2018-08-03T11:01:03.877Z,1015.77
2018-08-03T11:02:03.890Z,1015.77
2018-08-03T11:03:03.923Z,1015.77
2018-08-03T11:04:03.943Z,1015.72
2018-08-03T11:05:03.970Z,1015.77
2018-08-03T11:06:03.984Z,1015.72
2018-08-03T11:07:04.010Z,1015.70
2018-08-03T11:08:04.040Z,1015.72
2018-08-03T11:09:04.068Z,1015.68
2018-08-03T11:10:04.111Z,1015.66
2018-08-03T11:11:04.114Z,1015.67
2018-08-03T11:12:04.129Z,1015.68
2018-08-03T11:13:04.154Z,1015.67
2018-08-03T11:14:04.181Z,1015.68
2018-08-03T11:15:04.200Z,1015.67
2018-08-03T11:16:04.251Z,1015.69
2018-08-03T11:17:04.263Z,1015.75
2018-08-03T11:18:04.265Z,1015.79
2018-08-03T11:19:04.305Z,1015.72
2018-08-03T11:20:04.310Z,1015.79
2018-08-03T11:21:04.327Z,1015.73
2018-08-03T11:22:04.401Z,1015.59
2018-08-03T11:23:04.402Z,1015.74
2018-08-03T11:24:04.425Z,1015.63
2018-08-03T11:25:04.427Z,1015.62
2018-08-03T11:26:04.483Z,1015.59
2018-08-03T11:27:04.465Z,1015.66
2018-08-03T11:28:04.487Z,1015.55
2018-08-03T11:29:04.545Z,1015.62
2018-08-03T11:30:04.592Z,1015.52
2018-08-03T11:31:04.562Z,1015.50
2018-08-03T11:32:04.572Z,1015.57
2018-08-03T11:33:04.603Z,1015.50
2018-08-03T11:34:04.610Z,1015.49
2018-08-03T11:35:04.670Z,1015.48
2018-08-03T11:36:04.651Z,1015.43
2018-08-03T11:37:04.707Z,1015.42
2018-08-03T11:38:04.694Z,1015.44
2018-08-03T11:39:04.718Z,1015.43
2018-08-03T11:40:04.740Z,1015.53
2018-08-03T11:41:04.749Z,1015.43
2018-08-03T11:42:04.767Z,1015.50
2018-08-03T11:43:04.785Z,1015.45
2018-08-03T11:44:04.807Z,1015.40
2018-08-03T11:45:04.831Z,1015.32
2018-08-03T11:46:04.862Z,1015.35
2018-08-03T11:47:04.872Z,1015.37
2018-08-03T11:48:04.884Z,1015.40
2018-08-03T11:49:04.902Z,1015.40
2018-08-03T11:50:04.930Z,1015.39
2018-08-03T11:51:04.943Z,1015.38
2018-08-03T11:52:04.955Z,1015.33
2018-08-03T11:53:05.019Z,1015.35
2018-08-03T11:54:05.047Z,1015.35
2018-08-03T11:55:05.032Z,1015.35
2018-08-03T11:56:05.039Z,1015.29
2018-08-03T11:57:05.063Z,1015.30
2018-08-03T11:58:05.070Z,1015.29
2018-08-03T11:59:05.097Z,1015.30
2018-08-03T12:00:05.108Z,1015.25
2018-08-03T12:01:05.125Z,1015.23
2018-08-03T12:02:05.155Z,1015.18
2018-08-03T12:03:05.185Z,1015.16
2018-08-03T12:04:05.207Z,1015.11
2018-08-03T12:05:05.208Z,1015.07
2018-08-03T12:06:05.240Z,1015.10